Classifiche di sempre
Migliori tempi personali validi di team tra tutti gli eventi e le stagioni. Ogni team compare una sola volta per divisione.
Cerca per nome e apri la pagina in cui è classificato questo record di divisione.
23,833 team in classifica
| Pos. | Pos. AG | Team | Nazionalità | Categoria età | TempoMiglior tempo | Distacco |
|---|---|---|---|---|---|---|
| 4876 | #1003 | Darryl Wellman & Hawain BamptonNAM · M 25-29 · AG #1003 | NAM | M 25-29 | 1:03:00 | +14:29 |
| 4877 | #2090 | Mathieu Lemarchand & Vincent TreseneFRA · M 30-34 · AG #2090 | FRA | M 30-34 | 1:03:00 | +14:29 |
| 4878 | #631 | Davide Gioetto & Simone GorzegnoITA · M 35-39 · AG #631 | ITA | M 35-39 | 1:03:01 | +14:30 |
| 4879 | #1004 | Trent Harris & Dan FransenNZL · M 25-29 · AG #1004 | NZL | M 25-29 | 1:03:01 | +14:30 |
| 4880 | #2091 | Tyron Hill & Daniel WoodAUS · M 30-34 · AG #2091 | AUS | M 30-34 | 1:03:01 | +14:30 |
| 4881 | #326 | Alessandro Gilio & Luis Carlos GilioMEX · M 16-24 · AG #326 | MEX | M 16-24 | 1:03:01 | +14:30 |
| 4882 | #1006 | Tyler Hawker & Kieren PowerAUS · M 25-29 · AG #1006 | AUS | M 25-29 | 1:03:01 | +14:30 |
| 4883 | #2092 | Travis Heyward & Daniel LittleUSA · M 30-34 · AG #2092 | USA | M 30-34 | 1:03:01 | +14:30 |
| 4884 | #2093 | Jared Silverman & Micheal RosaM 30-34 · AG #2093 | -- | M 30-34 | 1:03:01 | +14:30 |
| 4885 | #2094 | Jamie Nelson & Oskar KolkGBR · M 30-34 · AG #2094 | GBR | M 30-34 | 1:03:01 | +14:30 |
| 4886 | #2095 | Joost Schoon & Lodewijk OostraNED · M 30-34 · AG #2095 | NED | M 30-34 | 1:03:01 | +14:30 |
| 4887 | -- | Marcus Erixon & Lucas PeterssonSWE · M MU29 | SWE | M MU29 | 1:03:01 | +14:30 |
| 4888 | #2096 | Adrien Boutroue & Samir KrouchiFRA · M 30-34 · AG #2096 | FRA | M 30-34 | 1:03:01 | +14:30 |
| 4889 | #1005 | Santiago Ramilo & Gaston VillenauURU · M 25-29 · AG #1005 | URU | M 25-29 | 1:03:01 | +14:30 |
| 4890 | #2097 | Frankie Landerkin & Mark WhittleM 30-34 · AG #2097 | -- | M 30-34 | 1:03:01 | +14:30 |
| 4891 | #1007 | Joren Groenendijk & Job JonkerNED · M 25-29 · AG #1007 | NED | M 25-29 | 1:03:01 | +14:30 |
| 4892 | #1008 | Michel Dapper & Jonas FischerGER · M 25-29 · AG #1008 | GER | M 25-29 | 1:03:02 | +14:31 |
| 4893 | #27 | Koen Daelewyn & Ronny HofenboomBEL · M 50-54 · AG #27 | BEL | M 50-54 | 1:03:02 | +14:31 |
| 4894 | #2098 | Stefan Böhme & Tobias FendtGER · M 30-34 · AG #2098 | GER | M 30-34 | 1:03:02 | +14:31 |
| 4895 | #327 | Even Sjamel & August KildalNOR · M 16-24 · AG #327 | NOR | M 16-24 | 1:03:02 | +14:31 |
| 4896 | #2099 | Bradley Mickelssen & Anthony KrslovicAUS · M 30-34 · AG #2099 | AUS | M 30-34 | 1:03:02 | +14:31 |
| 4897 | #2100 | Sihao Kuo & Michael King Ting FungM 30-34 · AG #2100 | -- | M 30-34 | 1:03:02 | +14:31 |
| 4898 | #2102 | Ayoub Elhamji & Abdulghani SaeedUAE · M 30-34 · AG #2102 | UAE | M 30-34 | 1:03:02 | +14:31 |
| 4899 | #2103 | Andreas Schmitt & Dominik SchramGER · M 30-34 · AG #2103 | GER | M 30-34 | 1:03:02 | +14:31 |
| 4900 | #2104 | Pierre Gnamian & Maxime ChedorgeFRA · M 30-34 · AG #2104 | FRA | M 30-34 | 1:03:02 | +14:31 |
Pagina 196 di 954